Time;durP1;ratioP1;P1;durP2;ratioP2;P2;SDS_P1;SDS_P2;PMS_P1;PMS_P2;Temp;Humidity;BMP_temperature;BMP_pressure;BME280_temperature;BME280_humidity;BME280_pressure;Samples;Min_cycle;Max_cycle;Signal;HPM_P1;HPM_P2
2022/12/24 00:00:30;;;;;;;;;;;;;;;;;;4998448;28;19929;-24
2022/12/24 00:02:56;;;;;;;;;;;;;;;;;;5015850;28;20012;-23
2022/12/24 00:05:22;;;;;;;;;;;;;;;;;;5015381;28;19956;-23
2022/12/24 00:07:48;;;;;;;;;;;;;;;;;;5015680;28;20010;-23
2022/12/24 00:10:14;;;;;;;;;;;;;;;;;;5015674;28;19913;-23
2022/12/24 00:12:40;;;;;;;;;;;;;;;;;;4998187;28;20029;-23
2022/12/24 00:15:06;;;;;;;;;;;;;;;;;;5015890;28;19953;-23
2022/12/24 00:17:32;;;;;;;;;;;;;;;;;;5015838;28;20475;-24
2022/12/24 00:19:57;;;;;;;;;;;;;;;;;;5015519;28;19944;-27
2022/12/24 00:22:23;;;;;;;;;;;;;;;;;;5015789;28;19917;-27
2022/12/24 00:24:49;;;;;;;;;;;;;;;;;;5015789;28;19918;-25
2022/12/24 00:27:15;;;;;;;;;;;;;;;;;;5015409;28;19917;-24
2022/12/24 00:29:42;;;;;;;;;;;;;;;;;;5015452;28;19996;-26
2022/12/24 00:32:09;;;;;;;;;;;;;;;;;;5015620;28;20064;-25
2022/12/24 00:34:35;;;;;;;;;;;;;;;;;;5015394;28;20000;-27
2022/12/24 00:37:01;;;;;;;;;;;;;;;;;;5015611;28;19948;-27
2022/12/24 00:39:27;;;;;;;;;;;;;;;;;;5015503;28;20084;-27
2022/12/24 00:41:53;;;;;;;;;;;;;;;;;;5015237;28;20300;-28
2022/12/24 00:44:19;;;;;;;;;;;;;;;;;;5015231;28;19926;-31
2022/12/24 00:46:45;;;;;;;;;;;;;;;;;;5052037;28;19943;-29
2022/12/24 00:49:11;;;;;;;;;;;;;;;;;;5054871;28;19923;-27
2022/12/24 00:51:37;;;;;;;;;;;;;;;;;;5054780;28;19981;-26
2022/12/24 00:54:03;;;;;;;;;;;;;;;;;;5054757;28;20386;-25
2022/12/24 00:56:29;;;;;;;;;;;;;;;;;;5054664;28;20352;-26
2022/12/24 00:58:55;;;;;;;;;;;;;;;;;;5055409;28;19912;-28
2022/12/24 01:01:21;;;;;;;;;;;;;;;;;;5055036;28;19913;-26
2022/12/24 01:03:47;;;;;;;;;;;;;;;;;;5054903;28;20252;-27
2022/12/24 01:06:13;;;;;;;;;;;;;;;;;;5054708;28;19913;-28
2022/12/24 01:08:39;;;;;;;;;;;;;;;;;;5054652;28;19920;-30
2022/12/24 01:11:05;;;;;;;;;;;;;;;;;;5054838;28;20002;-29
2022/12/24 01:13:31;;;;;;;;;;;;;;;;;;5054525;28;20266;-26
2022/12/24 01:15:57;;;;;;;;;;;;;;;;;;5054561;28;19944;-26
2022/12/24 01:18:23;;;;;;;;;;;;;;;;;;5057935;28;19909;-27
2022/12/24 01:20:49;;;;;;;;;;;;;;;;;;5058654;28;20027;-29
2022/12/24 01:23:15;;;;;;;;;;;;;;;;;;5058814;28;19923;-29
2022/12/24 01:25:41;;;;;;;;;;;;;;;;;;5058766;28;19941;-30
2022/12/24 01:28:07;;;;;;;;;;;;;;;;;;5058777;28;20339;-28
2022/12/24 01:30:33;;;;;;;;;;;;;;;;;;5058691;28;19912;-31
2022/12/24 01:32:59;;;;;;;;;;;;;;;;;;5058645;28;19908;-25
2022/12/24 01:35:24;;;;;;;;;;;;;;;;;;5040742;28;19979;-28
2022/12/24 01:37:50;;;;;;;;;;;;;;;;;;5058595;28;19909;-27
2022/12/24 01:45:46;;;;;;;;;;;;;;;;;;5058003;28;20318;-27
2022/12/24 01:48:12;;;;;;;;;;;;;;;;;;5058380;28;19927;-25
2022/12/24 01:50:38;;;;;;;;;;;;;;;;;;5058132;28;19987;-30
2022/12/24 01:53:04;;;;;;;;;;;;;;;;;;5058154;28;19923;-28
2022/12/24 01:55:30;;;;;;;;;;;;;;;;;;5058011;28;19913;-26
2022/12/24 01:57:56;;;;;;;;;;;;;;;;;;5057974;28;19912;-28
2022/12/24 02:00:22;;;;;;;;;;;;;;;;;;5058129;28;19921;-26
2022/12/24 02:02:48;;;;;;;;;;;;;;;;;;5057808;28;19909;-28
2022/12/24 02:05:14;;;;;;;;;;;;;;;;;;5057858;28;19986;-30
2022/12/24 02:07:40;;;;;;;;;;;;;;;;;;5057853;28;19909;-31
2022/12/24 02:10:06;;;;;;;;;;;;;;;;;;5058018;28;20392;-25
2022/12/24 02:12:32;;;;;;;;;;;;;;;;;;5057639;28;19962;-29
2022/12/24 02:14:58;;;;;;;;;;;;;;;;;;5057876;28;19977;-28
2022/12/24 02:17:24;;;;;;;;;;;;;;;;;;5057586;28;19909;-26
2022/12/24 02:19:50;;;;;;;;;;;;;;;;;;5057526;28;19921;-24
2022/12/24 02:22:16;;;;;;;;;;;;;;;;;;5057743;28;19955;-26
2022/12/24 02:24:42;;;;;;;;;;;;;;;;;;5057475;28;19917;-28
2022/12/24 02:27:08;;;;;;;;;;;;;;;;;;5057410;28;19971;-25
2022/12/24 02:29:34;;;;;;;;;;;;;;;;;;5057043;28;19915;-33
2022/12/24 02:32:00;;;;;;;;;;;;;;;;;;5057524;28;19924;-28
2022/12/24 02:34:26;;;;;;;;;;;;;;;;;;5057601;28;19913;-31
2022/12/24 02:36:52;;;;;;;;;;;;;;;;;;5039619;28;19916;-29
2022/12/24 02:39:18;;;;;;;;;;;;;;;;;;5057144;28;19924;-25
2022/12/24 02:44:28;;;;;;;;;;;;;;;;;;5057144;28;20357;-27
2022/12/24 02:46:54;;;;;;;;;;;;;;;;;;5056984;28;19920;-25
2022/12/24 02:49:20;;;;;;;;;;;;;;;;;;5057289;28;19913;-29
2022/12/24 02:51:46;;;;;;;;;;;;;;;;;;5057175;28;19924;-29
2022/12/24 02:54:12;;;;;;;;;;;;;;;;;;5056820;28;19952;-25
2022/12/24 02:56:38;;;;;;;;;;;;;;;;;;5039214;28;19994;-25
2022/12/24 02:59:04;;;;;;;;;;;;;;;;;;5056747;28;19913;-28
2022/12/24 03:01:30;;;;;;;;;;;;;;;;;;5056816;28;20263;-28
2022/12/24 03:03:56;;;;;;;;;;;;;;;;;;5056929;28;19913;-27
2022/12/24 03:06:22;;;;;;;;;;;;;;;;;;5056666;28;20370;-25
2022/12/24 03:08:48;;;;;;;;;;;;;;;;;;5056652;28;19909;-27
2022/12/24 03:11:14;;;;;;;;;;;;;;;;;;5056534;28;19924;-27
2022/12/24 03:13:40;;;;;;;;;;;;;;;;;;5056504;28;20399;-28
2022/12/24 03:16:06;;;;;;;;;;;;;;;;;;5056501;28;19913;-26
2022/12/24 03:18:32;;;;;;;;;;;;;;;;;;5056368;28;19997;-28
2022/12/24 03:20:58;;;;;;;;;;;;;;;;;;5056444;28;19909;-27
2022/12/24 03:23:24;;;;;;;;;;;;;;;;;;5056222;28;19912;-25
2022/12/24 03:25:50;;;;;;;;;;;;;;;;;;5056266;28;20263;-29
2022/12/24 03:28:16;;;;;;;;;;;;;;;;;;5056293;28;19909;-26
2022/12/24 03:30:42;;;;;;;;;;;;;;;;;;5056415;28;19978;-27
2022/12/24 03:33:08;;;;;;;;;;;;;;;;;;5056279;28;20298;-25
2022/12/24 03:35:34;;;;;;;;;;;;;;;;;;5056040;28;20395;-27
2022/12/24 03:38:00;;;;;;;;;;;;;;;;;;5056025;28;19909;-27
2022/12/24 03:40:26;;;;;;;;;;;;;;;;;;5055219;28;19924;-32
2022/12/24 03:42:52;;;;;;;;;;;;;;;;;;5056421;28;19926;-28
2022/12/24 03:45:18;;;;;;;;;;;;;;;;;;5055739;28;19948;-29
2022/12/24 03:47:44;;;;;;;;;;;;;;;;;;5055913;28;19909;-30
2022/12/24 03:50:10;;;;;;;;;;;;;;;;;;5055840;28;19913;-26
2022/12/24 03:52:36;;;;;;;;;;;;;;;;;;5055936;28;19909;-32
2022/12/24 03:55:02;;;;;;;;;;;;;;;;;;5055746;28;20007;-31
2022/12/24 03:57:28;;;;;;;;;;;;;;;;;;5038146;28;19959;-31
2022/12/24 03:59:54;;;;;;;;;;;;;;;;;;5055797;28;19917;-27
2022/12/24 04:02:20;;;;;;;;;;;;;;;;;;5055786;28;19909;-28
2022/12/24 04:04:46;;;;;;;;;;;;;;;;;;5055760;28;20255;-33
2022/12/24 04:07:12;;;;;;;;;;;;;;;;;;5055599;28;19920;-28
2022/12/24 04:09:39;;;;;;;;;;;;;;;;;;5037864;28;20371;-25
2022/12/24 04:12:05;;;;;;;;;;;;;;;;;;5055597;28;19908;-28
2022/12/24 04:14:31;;;;;;;;;;;;;;;;;;5055321;28;20370;-26
2022/12/24 04:16:57;;;;;;;;;;;;;;;;;;5055272;28;19919;-34
2022/12/24 04:19:23;;;;;;;;;;;;;;;;;;5055242;28;19913;-33
2022/12/24 04:21:49;;;;;;;;;;;;;;;;;;5055208;28;19917;-28
2022/12/24 04:24:15;;;;;;;;;;;;;;;;;;5055439;28;19916;-28
2022/12/24 04:26:41;;;;;;;;;;;;;;;;;;5055199;28;19966;-28
2022/12/24 04:29:07;;;;;;;;;;;;;;;;;;5055161;28;19909;-31
2022/12/24 04:31:33;;;;;;;;;;;;;;;;;;5055113;28;19948;-26
2022/12/24 04:33:59;;;;;;;;;;;;;;;;;;5054942;28;19912;-32
2022/12/24 04:36:25;;;;;;;;;;;;;;;;;;5055284;28;19913;-26
2022/12/24 04:38:51;;;;;;;;;;;;;;;;;;5037347;28;19928;-26
2022/12/24 04:41:17;;;;;;;;;;;;;;;;;;5054997;28;19908;-31
2022/12/24 04:43:43;;;;;;;;;;;;;;;;;;5055132;28;19913;-24
2022/12/24 04:46:09;;;;;;;;;;;;;;;;;;5037056;28;20009;-26
2022/12/24 04:48:35;;;;;;;;;;;;;;;;;;5055162;28;19909;-28
2022/12/24 04:51:02;;;;;;;;;;;;;;;;;;5054896;28;20291;-28
2022/12/24 04:53:28;;;;;;;;;;;;;;;;;;5055014;28;20008;-26
2022/12/24 04:55:53;;;;;;;;;;;;;;;;;;5054760;28;20324;-31
2022/12/24 04:58:19;;;;;;;;;;;;;;;;;;5055031;28;19949;-30
2022/12/24 05:00:45;;;;;;;;;;;;;;;;;;5054783;28;20299;-33
2022/12/24 05:03:11;;;;;;;;;;;;;;;;;;5054956;28;19920;-24
2022/12/24 05:05:37;;;;;;;;;;;;;;;;;;5054632;28;19913;-32
2022/12/24 05:08:03;;;;;;;;;;;;;;;;;;5054908;28;19916;-25
2022/12/24 05:10:29;;;;;;;;;;;;;;;;;;5054608;28;19938;-25
2022/12/24 05:12:55;;;;;;;;;;;;;;;;;;5054513;28;20008;-26
2022/12/24 05:15:21;;;;;;;;;;;;;;;;;;5054596;28;20010;-28
2022/12/24 05:17:47;;;;;;;;;;;;;;;;;;5054774;28;19909;-26
2022/12/24 05:20:13;;;;;;;;;;;;;;;;;;5054418;28;19921;-27
2022/12/24 05:28:09;;;;;;;;;;;;;;;;;;5054764;28;20078;-29
2022/12/24 05:30:35;;;;;;;;;;;;;;;;;;5054304;28;20442;-32
2022/12/24 05:33:01;;;;;;;;;;;;;;;;;;5054431;28;19920;-26
2022/12/24 05:35:27;;;;;;;;;;;;;;;;;;5054416;28;19912;-32
2022/12/24 05:37:53;;;;;;;;;;;;;;;;;;5054392;28;19912;-26
2022/12/24 05:40:19;;;;;;;;;;;;;;;;;;5054286;28;19917;-29
2022/12/24 05:42:44;;;;;;;;;;;;;;;;;;5054503;28;19909;-26
2022/12/24 05:45:10;;;;;;;;;;;;;;;;;;5054327;28;19995;-30
2022/12/24 05:47:36;;;;;;;;;;;;;;;;;;5054284;28;19913;-28
2022/12/24 05:50:02;;;;;;;;;;;;;;;;;;5054587;28;19912;-27
2022/12/24 05:52:28;;;;;;;;;;;;;;;;;;5054187;28;19912;-28
2022/12/24 05:54:54;;;;;;;;;;;;;;;;;;5054246;28;19966;-27
2022/12/24 05:57:20;;;;;;;;;;;;;;;;;;5054157;28;20347;-27
2022/12/24 05:59:48;;;;;;;;;;;;;;;;;;5054050;28;19924;-26
2022/12/24 06:02:13;;;;;;;;;;;;;;;;;;5054007;28;19923;-27
2022/12/24 06:04:39;;;;;;;;;;;;;;;;;;5057718;28;19908;-30
2022/12/24 06:07:05;;;;;;;;;;;;;;;;;;5057816;28;19920;-28
2022/12/24 06:09:31;;;;;;;;;;;;;;;;;;5057808;28;19999;-28
2022/12/24 06:11:57;;;;;;;;;;;;;;;;;;5057908;28;20344;-25
2022/12/24 06:14:23;;;;;;;;;;;;;;;;;;5057661;28;19913;-30
2022/12/24 06:16:49;;;;;;;;;;;;;;;;;;5057845;28;20362;-28
2022/12/24 06:19:15;;;;;;;;;;;;;;;;;;5057528;28;19924;-30
2022/12/24 06:21:41;;;;;;;;;;;;;;;;;;5040004;28;19952;-27
2022/12/24 06:24:07;;;;;;;;;;;;;;;;;;5057467;28;19920;-30
2022/12/24 06:26:33;;;;;;;;;;;;;;;;;;5057460;28;19916;-29
2022/12/24 06:28:59;;;;;;;;;;;;;;;;;;5057473;28;20340;-25
2022/12/24 06:31:25;;;;;;;;;;;;;;;;;;5057652;28;19912;-32
2022/12/24 06:33:51;;;;;;;;;;;;;;;;;;5057291;28;19916;-26
2022/12/24 06:36:17;;;;;;;;;;;;;;;;;;5057231;28;19920;-31
2022/12/24 06:38:43;;;;;;;;;;;;;;;;;;5057390;28;19909;-26
2022/12/24 06:41:09;;;;;;;;;;;;;;;;;;5057142;28;19912;-29
2022/12/24 06:43:35;;;;;;;;;;;;;;;;;;5056974;28;19913;-27
2022/12/24 06:46:01;;;;;;;;;;;;;;;;;;5056907;28;19928;-25
2022/12/24 06:48:27;;;;;;;;;;;;;;;;;;5057029;28;19909;-27
2022/12/24 06:50:53;;;;;;;;;;;;;;;;;;5057229;28;19912;-24
2022/12/24 06:53:19;;;;;;;;;;;;;;;;;;5056988;28;19920;-30
2022/12/24 06:55:45;;;;;;;;;;;;;;;;;;5056868;28;20011;-26
2022/12/24 06:58:11;;;;;;;;;;;;;;;;;;5039232;28;19948;-27
2022/12/24 07:00:37;;;;;;;;;;;;;;;;;;5056771;28;19919;-25
2022/12/24 07:03:03;;;;;;;;;;;;;;;;;;5056735;28;19919;-25
2022/12/24 07:05:29;;;;;;;;;;;;;;;;;;5057085;28;20015;-27
2022/12/24 07:07:55;;;;;;;;;;;;;;;;;;5056877;28;19924;-28
2022/12/24 07:10:21;;;;;;;;;;;;;;;;;;5056673;28;19909;-32
2022/12/24 07:12:47;;;;;;;;;;;;;;;;;;5056445;28;19917;-29
2022/12/24 07:15:13;;;;;;;;;;;;;;;;;;5037844;28;19909;-26
2022/12/24 07:17:39;;;;;;;;;;;;;;;;;;5056496;28;19982;-26
2022/12/24 07:20:05;;;;;;;;;;;;;;;;;;5056366;28;19916;-30
2022/12/24 07:22:31;;;;;;;;;;;;;;;;;;5056318;28;19913;-31
2022/12/24 07:24:57;;;;;;;;;;;;;;;;;;5056357;28;19913;-31
2022/12/24 07:27:23;;;;;;;;;;;;;;;;;;5056256;28;19912;-29
2022/12/24 07:29:49;;;;;;;;;;;;;;;;;;5056220;28;19917;-29
2022/12/24 07:32:15;;;;;;;;;;;;;;;;;;5056115;28;20259;-28
2022/12/24 07:34:41;;;;;;;;;;;;;;;;;;5056091;28;19920;-26
2022/12/24 07:37:07;;;;;;;;;;;;;;;;;;5056147;28;19920;-26
2022/12/24 07:39:33;;;;;;;;;;;;;;;;;;5056020;28;19961;-26
2022/12/24 07:41:59;;;;;;;;;;;;;;;;;;5055976;28;20262;-30
2022/12/24 07:44:25;;;;;;;;;;;;;;;;;;5056360;28;20224;-28
2022/12/24 07:46:51;;;;;;;;;;;;;;;;;;5038227;28;20260;-29
2022/12/24 07:49:17;;;;;;;;;;;;;;;;;;5055947;28;19909;-26
2022/12/24 07:51:43;;;;;;;;;;;;;;;;;;5055857;28;19967;-28
2022/12/24 07:54:09;;;;;;;;;;;;;;;;;;5055675;28;19936;-28
2022/12/24 07:56:35;;;;;;;;;;;;;;;;;;5055682;28;20328;-27
2022/12/24 07:59:01;;;;;;;;;;;;;;;;;;5055590;28;19920;-27
2022/12/24 08:01:27;;;;;;;;;;;;;;;;;;5055917;28;19913;-26
2022/12/24 08:03:53;;;;;;;;;;;;;;;;;;5055515;28;19909;-27
2022/12/24 08:06:19;;;;;;;;;;;;;;;;;;5055781;28;19978;-24
2022/12/24 08:08:45;;;;;;;;;;;;;;;;;;5037972;28;20340;-30
2022/12/24 08:11:11;;;;;;;;;;;;;;;;;;5055443;28;19920;-25
2022/12/24 08:13:37;;;;;;;;;;;;;;;;;;5055304;28;20256;-27
2022/12/24 08:16:03;;;;;;;;;;;;;;;;;;5055400;28;19996;-26
2022/12/24 08:18:29;;;;;;;;;;;;;;;;;;5055403;28;20399;-29
2022/12/24 08:20:55;;;;;;;;;;;;;;;;;;5055319;28;19913;-26
2022/12/24 08:23:21;;;;;;;;;;;;;;;;;;5055350;28;19916;-26
2022/12/24 08:25:47;;;;;;;;;;;;;;;;;;5054969;28;19967;-26
2022/12/24 08:28:13;;;;;;;;;;;;;;;;;;5055123;28;19913;-29
2022/12/24 08:30:39;;;;;;;;;;;;;;;;;;5055441;28;19962;-29
2022/12/24 08:33:05;;;;;;;;;;;;;;;;;;5055281;28;20008;-29
2022/12/24 08:35:31;;;;;;;;;;;;;;;;;;5055094;28;20303;-28
2022/12/24 08:37:57;;;;;;;;;;;;;;;;;;5037523;28;19913;-29
2022/12/24 08:40:23;;;;;;;;;;;;;;;;;;5055187;28;20332;-30
2022/12/24 08:42:49;;;;;;;;;;;;;;;;;;5055158;28;19922;-27
2022/12/24 08:45:15;;;;;;;;;;;;;;;;;;5037136;28;19924;-25
2022/12/24 08:47:41;;;;;;;;;;;;;;;;;;5055158;28;19916;-26
2022/12/24 08:50:07;;;;;;;;;;;;;;;;;;5054869;28;20287;-26
2022/12/24 08:52:33;;;;;;;;;;;;;;;;;;5054969;28;19909;-26
2022/12/24 08:54:59;;;;;;;;;;;;;;;;;;5054819;28;20058;-28
2022/12/24 08:57:25;;;;;;;;;;;;;;;;;;5055133;28;19909;-25
2022/12/24 08:59:51;;;;;;;;;;;;;;;;;;5054745;28;20367;-28
2022/12/24 09:02:17;;;;;;;;;;;;;;;;;;5054903;28;19920;-30
2022/12/24 09:04:43;;;;;;;;;;;;;;;;;;5054946;28;19974;-31
2022/12/24 09:07:09;;;;;;;;;;;;;;;;;;5054922;28;19963;-32
2022/12/24 09:09:35;;;;;;;;;;;;;;;;;;5054593;28;20386;-30
2022/12/24 09:12:01;;;;;;;;;;;;;;;;;;5054541;28;19909;-32
2022/12/24 09:14:27;;;;;;;;;;;;;;;;;;5054876;28;19916;-32
2022/12/24 09:16:53;;;;;;;;;;;;;;;;;;5054531;28;20271;-32
2022/12/24 09:19:19;;;;;;;;;;;;;;;;;;5054757;28;20047;-31
2022/12/24 09:21:45;;;;;;;;;;;;;;;;;;5054803;28;20233;-27
2022/12/24 09:24:11;;;;;;;;;;;;;;;;;;5054443;28;20006;-29
2022/12/24 09:26:37;;;;;;;;;;;;;;;;;;5036880;28;20240;-31
2022/12/24 09:29:03;;;;;;;;;;;;;;;;;;5054613;28;19920;-28
2022/12/24 09:31:29;;;;;;;;;;;;;;;;;;5054736;28;19936;-28
2022/12/24 09:33:55;;;;;;;;;;;;;;;;;;5054700;28;19917;-31
2022/12/24 09:36:21;;;;;;;;;;;;;;;;;;5054431;28;19936;-28
2022/12/24 09:38:46;;;;;;;;;;;;;;;;;;5056477;28;19912;-27
2022/12/24 09:41:12;;;;;;;;;;;;;;;;;;5058405;28;19913;-28
2022/12/24 09:43:38;;;;;;;;;;;;;;;;;;5058300;28;20007;-24
2022/12/24 09:46:05;;;;;;;;;;;;;;;;;;5058051;28;19921;-26
2022/12/24 09:48:31;;;;;;;;;;;;;;;;;;5058238;28;19916;-25
2022/12/24 09:50:56;;;;;;;;;;;;;;;;;;5058605;28;19912;-31
2022/12/24 09:53:22;;;;;;;;;;;;;;;;;;5058289;28;20229;-27
2022/12/24 09:55:48;;;;;;;;;;;;;;;;;;5058026;28;20316;-32
2022/12/24 09:58:14;;;;;;;;;;;;;;;;;;5057991;28;19913;-27
2022/12/24 10:00:40;;;;;;;;;;;;;;;;;;5057925;28;19921;-25
2022/12/24 10:03:06;;;;;;;;;;;;;;;;;;5057826;28;19913;-27
2022/12/24 10:05:32;;;;;;;;;;;;;;;;;;5057754;28;19959;-25
2022/12/24 10:07:58;;;;;;;;;;;;;;;;;;5057814;28;19908;-28
2022/12/24 10:10:24;;;;;;;;;;;;;;;;;;5058113;28;19924;-27
2022/12/24 10:12:50;;;;;;;;;;;;;;;;;;5057622;28;20367;-25
2022/12/24 10:15:16;;;;;;;;;;;;;;;;;;5057772;28;19913;-26
2022/12/24 10:17:42;;;;;;;;;;;;;;;;;;5057912;28;19913;-29
2022/12/24 10:20:08;;;;;;;;;;;;;;;;;;5057778;28;19916;-25
2022/12/24 10:22:34;;;;;;;;;;;;;;;;;;5057749;28;19908;-29
2022/12/24 10:25:00;;;;;;;;;;;;;;;;;;5057767;28;19912;-28
2022/12/24 10:27:26;;;;;;;;;;;;;;;;;;5057452;28;19908;-27
2022/12/24 10:29:52;;;;;;;;;;;;;;;;;;5057646;28;20014;-30
2022/12/24 10:32:18;;;;;;;;;;;;;;;;;;5057542;28;19913;-30
2022/12/24 10:34:44;;;;;;;;;;;;;;;;;;5057515;28;19919;-24
2022/12/24 10:37:10;;;;;;;;;;;;;;;;;;5057224;28;19909;-28
2022/12/24 10:39:36;;;;;;;;;;;;;;;;;;5057438;28;20319;-28
2022/12/24 10:42:02;;;;;;;;;;;;;;;;;;5057368;28;19952;-29
2022/12/24 10:44:28;;;;;;;;;;;;;;;;;;5057156;28;20244;-33
2022/12/24 10:46:54;;;;;;;;;;;;;;;;;;5056931;28;19921;-28
2022/12/24 10:49:20;;;;;;;;;;;;;;;;;;5057087;28;19991;-28
2022/12/24 10:51:46;;;;;;;;;;;;;;;;;;5056964;28;19974;-25
2022/12/24 10:54:13;;;;;;;;;;;;;;;;;;5056909;28;19912;-31
2022/12/24 10:56:39;;;;;;;;;;;;;;;;;;5057046;28;20221;-27
2022/12/24 10:59:05;;;;;;;;;;;;;;;;;;5056724;28;19917;-27
2022/12/24 11:01:31;;;;;;;;;;;;;;;;;;5056875;28;20251;-27
2022/12/24 11:03:57;;;;;;;;;;;;;;;;;;5056706;28;19920;-28
2022/12/24 11:06:23;;;;;;;;;;;;;;;;;;5056619;28;19912;-29
2022/12/24 11:08:49;;;;;;;;;;;;;;;;;;5056943;28;19955;-29
2022/12/24 11:11:15;;;;;;;;;;;;;;;;;;5056917;28;20000;-32
2022/12/24 11:13:41;;;;;;;;;;;;;;;;;;5056648;28;20308;-25
2022/12/24 11:16:07;;;;;;;;;;;;;;;;;;5056482;28;19912;-27
2022/12/24 11:18:33;;;;;;;;;;;;;;;;;;5056508;28;19921;-31
2022/12/24 11:20:59;;;;;;;;;;;;;;;;;;5056429;28;19920;-28
2022/12/24 11:23:25;;;;;;;;;;;;;;;;;;5056575;28;19913;-26
2022/12/24 11:25:51;;;;;;;;;;;;;;;;;;5056710;28;20351;-25
2022/12/24 11:28:17;;;;;;;;;;;;;;;;;;5038720;28;19966;-29
2022/12/24 11:30:43;;;;;;;;;;;;;;;;;;5056347;28;20021;-30
2022/12/24 11:33:09;;;;;;;;;;;;;;;;;;5056222;28;19919;-24
2022/12/24 11:35:35;;;;;;;;;;;;;;;;;;5056191;28;20252;-27
2022/12/24 11:38:02;;;;;;;;;;;;;;;;;;5056124;28;19917;-24
2022/12/24 11:40:28;;;;;;;;;;;;;;;;;;5055979;28;19923;-27
2022/12/24 11:42:54;;;;;;;;;;;;;;;;;;5056062;28;19996;-24
2022/12/24 11:45:20;;;;;;;;;;;;;;;;;;5055825;28;19932;-29
2022/12/24 11:47:46;;;;;;;;;;;;;;;;;;5055877;28;19913;-30
2022/12/24 11:50:12;;;;;;;;;;;;;;;;;;5055923;28;20299;-24
2022/12/24 11:52:38;;;;;;;;;;;;;;;;;;5055815;28;19913;-29
2022/12/24 11:55:04;;;;;;;;;;;;;;;;;;5055814;28;19919;-28
2022/12/24 11:57:30;;;;;;;;;;;;;;;;;;5038183;28;20264;-27
2022/12/24 11:59:56;;;;;;;;;;;;;;;;;;5055547;28;19928;-26
2022/12/24 12:02:22;;;;;;;;;;;;;;;;;;5055012;28;19912;-30
2022/12/24 12:04:48;;;;;;;;;;;;;;;;;;5055927;28;19924;-29
2022/12/24 12:07:13;;;;;;;;;;;;;;;;;;5055532;28;19964;-28
2022/12/24 12:09:39;;;;;;;;;;;;;;;;;;5055931;28;19908;-29
2022/12/24 12:12:05;;;;;;;;;;;;;;;;;;5055697;28;19913;-26
2022/12/24 12:14:31;;;;;;;;;;;;;;;;;;5055736;28;20209;-28
2022/12/24 12:17:02;;;;;;;;;;;;;;;;;;5055381;28;19913;-26
2022/12/24 12:19:28;;;;;;;;;;;;;;;;;;5055196;28;19917;-26
2022/12/24 12:21:54;;;;;;;;;;;;;;;;;;5055601;28;19972;-27
2022/12/24 12:24:20;;;;;;;;;;;;;;;;;;5055298;28;19917;-29
2022/12/24 12:26:46;;;;;;;;;;;;;;;;;;5055223;28;19923;-29
2022/12/24 12:29:12;;;;;;;;;;;;;;;;;;5055436;28;20315;-31
2022/12/24 12:31:38;;;;;;;;;;;;;;;;;;5055433;28;19955;-26
2022/12/24 12:34:04;;;;;;;;;;;;;;;;;;5055002;28;19970;-25
2022/12/24 12:36:30;;;;;;;;;;;;;;;;;;5055303;28;19924;-29
2022/12/24 12:38:56;;;;;;;;;;;;;;;;;;5054995;28;20054;-31
2022/12/24 12:41:22;;;;;;;;;;;;;;;;;;5055281;28;19913;-34
2022/12/24 12:43:48;;;;;;;;;;;;;;;;;;5054927;28;20301;-28
2022/12/24 12:46:14;;;;;;;;;;;;;;;;;;5054780;28;19921;-27
2022/12/24 12:48:40;;;;;;;;;;;;;;;;;;5054922;28;19919;-28
2022/12/24 12:51:06;;;;;;;;;;;;;;;;;;5055096;28;19920;-28
2022/12/24 12:53:32;;;;;;;;;;;;;;;;;;5055069;28;19920;-32
2022/12/24 12:55:58;;;;;;;;;;;;;;;;;;5055080;28;19913;-28
2022/12/24 12:58:24;;;;;;;;;;;;;;;;;;5054790;28;19939;-27
2022/12/24 13:00:50;;;;;;;;;;;;;;;;;;5054581;28;19920;-28
2022/12/24 13:03:16;;;;;;;;;;;;;;;;;;5054705;28;19909;-26
2022/12/24 13:05:42;;;;;;;;;;;;;;;;;;5054650;28;19912;-30
2022/12/24 13:08:08;;;;;;;;;;;;;;;;;;5054682;28;19908;-31
2022/12/24 13:10:34;;;;;;;;;;;;;;;;;;5054659;28;20039;-26
2022/12/24 13:13:00;;;;;;;;;;;;;;;;;;5057198;28;20374;-29
2022/12/24 13:15:26;;;;;;;;;;;;;;;;;;5059354;28;20022;-29
2022/12/24 13:17:52;;;;;;;;;;;;;;;;;;5058828;28;20010;-26
2022/12/24 13:20:18;;;;;;;;;;;;;;;;;;5058990;28;20442;-28
2022/12/24 13:22:44;;;;;;;;;;;;;;;;;;5058928;28;19909;-29
2022/12/24 13:25:10;;;;;;;;;;;;;;;;;;5058652;28;20343;-30
2022/12/24 13:27:36;;;;;;;;;;;;;;;;;;5058641;28;19920;-27
2022/12/24 13:30:02;;;;;;;;;;;;;;;;;;5058851;28;19992;-32
2022/12/24 13:32:28;;;;;;;;;;;;;;;;;;5059297;28;19919;-26
2022/12/24 13:34:54;;;;;;;;;;;;;;;;;;5058483;28;19914;-26
2022/12/24 13:37:20;;;;;;;;;;;;;;;;;;5058640;28;19981;-23
2022/12/24 13:39:46;;;;;;;;;;;;;;;;;;5058494;28;20340;-29
2022/12/24 13:42:12;;;;;;;;;;;;;;;;;;5058198;28;19979;-26
2022/12/24 13:44:38;;;;;;;;;;;;;;;;;;5058091;28;20000;-28
2022/12/24 13:47:05;;;;;;;;;;;;;;;;;;5058239;28;19959;-25
2022/12/24 13:49:31;;;;;;;;;;;;;;;;;;5058457;28;19912;-22
2022/12/24 13:51:57;;;;;;;;;;;;;;;;;;5058305;28;19955;-23
2022/12/24 13:54:24;;;;;;;;;;;;;;;;;;5058081;28;20298;-24
2022/12/24 13:56:50;;;;;;;;;;;;;;;;;;5058299;28;19932;-22
2022/12/24 13:59:16;;;;;;;;;;;;;;;;;;5057925;28;20025;-23
2022/12/24 14:01:42;;;;;;;;;;;;;;;;;;5058224;28;20012;-25
2022/12/24 14:04:08;;;;;;;;;;;;;;;;;;5057832;28;19908;-24
2022/12/24 14:06:34;;;;;;;;;;;;;;;;;;5057908;28;19913;-25
2022/12/24 14:09:01;;;;;;;;;;;;;;;;;;5058122;28;19917;-25
2022/12/24 14:11:27;;;;;;;;;;;;;;;;;;5057990;28;20011;-26
2022/12/24 14:13:53;;;;;;;;;;;;;;;;;;5040037;28;20323;-29
2022/12/24 14:16:19;;;;;;;;;;;;;;;;;;5057671;28;19909;-26
2022/12/24 14:18:45;;;;;;;;;;;;;;;;;;5057799;28;19919;-30
2022/12/24 14:21:11;;;;;;;;;;;;;;;;;;5057795;28;20399;-25
2022/12/24 14:23:37;;;;;;;;;;;;;;;;;;5039238;28;19908;-25
2022/12/24 14:26:03;;;;;;;;;;;;;;;;;;5057488;28;19928;-27
2022/12/24 14:28:29;;;;;;;;;;;;;;;;;;5057394;28;20304;-24
2022/12/24 14:30:55;;;;;;;;;;;;;;;;;;5057626;28;19913;-24
2022/12/24 14:33:21;;;;;;;;;;;;;;;;;;5057551;28;20008;-30
2022/12/24 14:35:47;;;;;;;;;;;;;;;;;;5057329;28;19913;-25
2022/12/24 14:38:13;;;;;;;;;;;;;;;;;;5057279;28;19927;-27
2022/12/24 14:40:39;;;;;;;;;;;;;;;;;;5057421;28;19969;-24
2022/12/24 14:43:05;;;;;;;;;;;;;;;;;;5057277;28;20326;-27
2022/12/24 14:45:31;;;;;;;;;;;;;;;;;;5057166;28;20355;-24
2022/12/24 14:47:57;;;;;;;;;;;;;;;;;;5057143;28;19963;-25
2022/12/24 14:50:23;;;;;;;;;;;;;;;;;;5057367;28;19970;-24
2022/12/24 14:52:49;;;;;;;;;;;;;;;;;;5056933;28;20306;-23
2022/12/24 14:55:15;;;;;;;;;;;;;;;;;;5057245;28;19923;-25
2022/12/24 14:57:41;;;;;;;;;;;;;;;;;;5057139;28;19965;-26
2022/12/24 15:00:07;;;;;;;;;;;;;;;;;;5056840;28;20256;-32
2022/12/24 15:02:33;;;;;;;;;;;;;;;;;;5056948;28;19913;-25
2022/12/24 15:04:59;;;;;;;;;;;;;;;;;;5056751;28;19931;-24
2022/12/24 15:07:25;;;;;;;;;;;;;;;;;;5056770;28;19909;-26
2022/12/24 15:09:52;;;;;;;;;;;;;;;;;;5056961;28;19913;-29
2022/12/24 15:12:20;;;;;;;;;;;;;;;;;;5056557;28;19913;-27
2022/12/24 15:14:46;;;;;;;;;;;;;;;;;;5056890;28;19924;-28
2022/12/24 15:17:12;;;;;;;;;;;;;;;;;;5056834;28;20323;-23
2022/12/24 15:19:38;;;;;;;;;;;;;;;;;;5056477;28;19975;-25
2022/12/24 15:22:04;;;;;;;;;;;;;;;;;;5056467;28;19913;-27
2022/12/24 15:24:31;;;;;;;;;;;;;;;;;;5056428;28;19912;-27
2022/12/24 15:26:57;;;;;;;;;;;;;;;;;;5056377;28;19913;-25
2022/12/24 15:29:23;;;;;;;;;;;;;;;;;;5056356;28;19984;-26
2022/12/24 15:31:49;;;;;;;;;;;;;;;;;;5056262;28;19928;-22
2022/12/24 15:34:15;;;;;;;;;;;;;;;;;;5056161;28;20263;-28
2022/12/24 15:36:41;;;;;;;;;;;;;;;;;;5055096;28;19908;-24
2022/12/24 15:39:07;;;;;;;;;;;;;;;;;;5055940;28;20343;-26
2022/12/24 15:41:33;;;;;;;;;;;;;;;;;;5056285;28;20062;-29
2022/12/24 15:43:59;;;;;;;;;;;;;;;;;;5056031;28;19913;-26
2022/12/24 15:46:25;;;;;;;;;;;;;;;;;;5055852;28;19939;-24
2022/12/24 15:48:51;;;;;;;;;;;;;;;;;;5055934;28;20255;-28
2022/12/24 15:51:17;;;;;;;;;;;;;;;;;;5055868;28;20035;-30
2022/12/24 15:53:43;;;;;;;;;;;;;;;;;;5055811;28;20212;-29
2022/12/24 15:56:09;;;;;;;;;;;;;;;;;;5056079;28;20228;-29
2022/12/24 15:58:35;;;;;;;;;;;;;;;;;;5055762;28;19913;-29
2022/12/24 16:01:01;;;;;;;;;;;;;;;;;;5055972;28;19916;-27
2022/12/24 16:03:27;;;;;;;;;;;;;;;;;;5055550;28;19948;-24
2022/12/24 16:05:53;;;;;;;;;;;;;;;;;;5055799;28;19913;-24
2022/12/24 16:08:19;;;;;;;;;;;;;;;;;;5055586;28;20355;-23
2022/12/24 16:10:45;;;;;;;;;;;;;;;;;;5055481;28;19912;-24
2022/12/24 16:13:11;;;;;;;;;;;;;;;;;;5055682;28;19912;-25
2022/12/24 16:15:37;;;;;;;;;;;;;;;;;;5055903;28;19964;-28
2022/12/24 16:18:03;;;;;;;;;;;;;;;;;;5055314;28;19963;-26
2022/12/24 16:20:29;;;;;;;;;;;;;;;;;;5055590;28;19912;-29
2022/12/24 16:22:55;;;;;;;;;;;;;;;;;;5055245;28;20050;-23
2022/12/24 16:25:21;;;;;;;;;;;;;;;;;;5055238;28;19996;-24
2022/12/24 16:27:47;;;;;;;;;;;;;;;;;;5055263;28;19935;-28
2022/12/24 16:30:13;;;;;;;;;;;;;;;;;;5055192;28;19920;-28
2022/12/24 16:32:40;;;;;;;;;;;;;;;;;;5055094;28;19962;-24
2022/12/24 16:35:07;;;;;;;;;;;;;;;;;;5055455;28;19913;-24
2022/12/24 16:37:33;;;;;;;;;;;;;;;;;;5055322;28;20229;-24
2022/12/24 16:39:59;;;;;;;;;;;;;;;;;;5054942;28;19925;-28
2022/12/24 16:45:09;;;;;;;;;;;;;;;;;;5055122;28;19927;-23
2022/12/24 16:47:35;;;;;;;;;;;;;;;;;;5054930;28;20367;-27
2022/12/24 16:50:01;;;;;;;;;;;;;;;;;;5054899;28;19909;-23
2022/12/24 16:52:27;;;;;;;;;;;;;;;;;;5054982;28;19913;-28